Time;durP1;ratioP1;P1;durP2;ratioP2;P2;SDS_P1;SDS_P2;PMS_P1;PMS_P2;Temp;Humidity;BMP_temperature;BMP_pressure;BME280_temperature;BME280_humidity;BME280_pressure;Samples;Min_cycle;Max_cycle;Signal;HPM_P1;HPM_P2
2022/09/22 00:01:20;;;;;;;3.42;1.25;;;9.90;99.90;;;;;;4969872;28;20027;-71
2022/09/22 00:03:53;;;;;;;3.03;1.42;;;9.90;99.90;;;;;;4969509;28;20046;-72
2022/09/22 00:06:33;;;;;;;6.28;1.48;;;9.90;99.90;;;;;;4955190;28;20031;-72
2022/09/22 00:09:00;;;;;;;4.38;1.67;;;9.80;99.90;;;;;;4968491;28;20455;-72
2022/09/22 00:11:41;;;;;;;2.78;1.02;;;9.80;99.90;;;;;;4955288;29;20090;-71
2022/09/22 00:14:10;;;;;;;2.10;1.10;;;9.70;99.90;;;;;;4969150;28;20144;-72
2022/09/22 00:16:44;;;;;;;2.67;1.83;;;9.70;99.90;;;;;;4954908;29;20439;-72
2022/09/22 00:19:15;;;;;;;1.95;1.20;;;9.80;99.90;;;;;;4954623;29;20089;-72
2022/09/22 00:21:41;;;;;;;1.67;1.10;;;9.80;99.90;;;;;;4969551;28;20043;-72
2022/09/22 00:24:07;;;;;;;5.90;1.73;;;9.80;99.90;;;;;;4954406;29;20294;-71
2022/09/22 00:26:34;;;;;;;1.52;0.90;;;9.80;99.90;;;;;;4954756;29;20094;-71
2022/09/22 00:29:01;;;;;;;1.65;1.38;;;9.70;99.90;;;;;;4954003;29;20048;-72
2022/09/22 00:31:27;;;;;;;1.58;1.08;;;9.70;99.90;;;;;;4969361;28;20039;-72
2022/09/22 00:33:54;;;;;;;2.35;1.33;;;9.60;99.90;;;;;;4954519;28;20031;-72
2022/09/22 00:36:24;;;;;;;3.75;1.70;;;9.50;99.90;;;;;;4968734;28;20038;-72
2022/09/22 00:38:51;;;;;;;1.27;1.02;;;9.60;99.90;;;;;;4954640;28;20038;-72
2022/09/22 00:41:26;;;;;;;4.18;1.23;;;9.60;99.90;;;;;;4954390;28;20035;-71
2022/09/22 00:44:20;;;;;;;3.58;1.40;;;9.70;99.90;;;;;;4954104;28;20496;-72
2022/09/22 00:46:53;;;;;;;1.92;1.17;;;9.60;99.90;;;;;;4954428;28;20512;-72
2022/09/22 00:49:49;;;;;;;1.55;0.88;;;9.60;99.90;;;;;;4968043;28;20105;-72
2022/09/22 00:52:30;;;;;;;3.13;1.40;;;9.60;99.90;;;;;;4944891;29;20134;-72
2022/09/22 00:55:01;;;;;;;1.35;0.80;;;9.60;99.90;;;;;;4952776;28;20035;-71
2022/09/22 00:57:32;;;;;;;5.73;0.93;;;9.60;99.90;;;;;;4968543;28;20031;-71
2022/09/22 01:00:00;;;;;;;1.60;0.85;;;9.60;99.90;;;;;;4968523;28;20743;-71
2022/09/22 01:02:26;;;;;;;5.57;2.05;;;9.60;99.90;;;;;;4968251;28;20066;-71
2022/09/22 01:04:52;;;;;;;2.20;1.13;;;9.60;99.90;;;;;;4948844;28;20153;-71
2022/09/22 01:07:21;;;;;;;4.50;1.45;;;9.60;99.90;;;;;;4946567;28;20049;-71
2022/09/22 01:09:47;;;;;;;2.55;1.20;;;9.50;99.90;;;;;;4939087;29;20519;-71
2022/09/22 01:12:13;;;;;;;1.73;1.10;;;9.40;99.90;;;;;;4949411;28;20063;-71
2022/09/22 01:15:12;;;;;;;1.73;1.10;;;9.30;99.90;;;;;;4953731;28;20027;-72
2022/09/22 01:18:05;;;;;;;1.27;0.85;;;9.30;99.90;;;;;;4967916;28;20030;-71
2022/09/22 01:20:50;;;;;;;3.72;1.35;;;9.30;99.90;;;;;;4953347;28;20118;-71
2022/09/22 01:23:59;;;;;;;1.25;0.85;;;9.30;99.90;;;;;;4951643;29;20074;-71
2022/09/22 01:26:52;;;;;;;8.52;1.67;;;9.30;99.90;;;;;;4934416;29;20610;-71
2022/09/22 01:29:54;;;;;;;1.02;0.75;;;9.40;99.90;;;;;;4918319;29;20456;-72
2022/09/22 01:32:37;;;;;;;1.80;1.20;;;9.30;99.90;;;;;;4933794;29;20554;-72
2022/09/22 01:35:38;;;;;;;10.35;1.58;;;9.30;99.90;;;;;;4933177;29;20039;-71
2022/09/22 01:38:35;;;;;;;1.40;0.88;;;9.30;99.90;;;;;;4949853;23;20079;-74
2022/09/22 01:41:14;;;;;;;3.40;1.70;;;9.10;99.90;;;;;;4949081;28;20043;-74
2022/09/22 01:43:51;;;;;;;3.85;1.33;;;9.10;99.90;;;;;;4928618;29;20111;-74
2022/09/22 01:46:29;;;;;;;1.35;1.00;;;9.10;99.90;;;;;;4929772;29;20040;-74
2022/09/22 01:49:01;;;;;;;3.08;1.58;;;9.10;99.90;;;;;;4928071;29;20067;-75
2022/09/22 01:51:34;;;;;;;;;;;8.90;99.90;;;;;;4914445;29;20036;-74
2022/09/22 01:54:11;;;;;;;4.50;1.60;;;8.60;99.90;;;;;;4913203;29;19923;-75
2022/09/22 01:56:40;;;;;;;1.92;0.88;;;8.70;99.90;;;;;;4913875;29;20032;-75
2022/09/22 01:59:09;;;;;;;4.70;1.40;;;8.50;99.90;;;;;;4913073;29;20032;-74
2022/09/22 02:01:55;;;;;;;5.20;2.10;;;8.50;99.90;;;;;;4913779;29;20039;-75
2022/09/22 02:04:30;;;;;;;6.03;1.38;;;8.50;99.90;;;;;;4913387;29;20031;-75
2022/09/22 02:07:06;;;;;;;3.65;1.95;;;8.60;99.90;;;;;;4913699;29;20033;-75
2022/09/22 02:09:34;;;;;;;2.13;1.20;;;8.60;99.90;;;;;;4913172;29;20032;-75
2022/09/22 02:12:02;;;;;;;2.47;1.40;;;8.70;99.90;;;;;;4913314;29;20028;-75
2022/09/22 02:14:28;;;;;;;1.60;1.25;;;8.70;99.90;;;;;;4914620;29;20024;-75
2022/09/22 02:16:54;;;;;;;3.80;1.73;;;8.70;99.90;;;;;;4948410;29;20028;-74
2022/09/22 02:19:29;;;;;;;9.68;1.73;;;8.70;99.90;;;;;;4932165;29;20495;-75
2022/09/22 02:21:55;;;;;;;1.23;0.85;;;8.70;99.90;;;;;;4933654;29;20035;-75
2022/09/22 02:24:36;;;;;;;3.97;1.52;;;8.70;99.90;;;;;;4933093;29;20028;-75
2022/09/22 02:27:22;;;;;;;;;;;8.80;99.90;;;;;;4934015;29;20036;-74
2022/09/22 02:30:09;;;;;;;3.45;1.02;;;8.90;99.90;;;;;;4945736;29;19915;-75
2022/09/22 02:32:38;;;;;;;4.82;2.35;;;8.90;99.90;;;;;;4947477;29;20123;-75
2022/09/22 02:35:06;;;;;;;2.17;1.08;;;8.90;99.90;;;;;;4948291;29;20107;-74
2022/09/22 02:37:57;;;;;;;3.50;1.38;;;8.90;99.90;;;;;;4933314;29;20023;-74
2022/09/22 02:41:14;;;;;;;4.28;1.90;;;8.80;99.90;;;;;;4946813;29;20415;-74
2022/09/22 02:43:57;;;;;;;2.28;1.70;;;8.70;99.90;;;;;;4932661;29;20432;-74
2022/09/22 02:46:37;;;;;;;2.30;1.50;;;8.70;99.90;;;;;;4932194;29;20039;-74
2022/09/22 02:49:12;;;;;;;2.28;1.42;;;8.70;99.90;;;;;;4946898;29;20035;-75
2022/09/22 02:51:38;;;;;;;3.03;1.73;;;8.70;99.90;;;;;;4947789;29;20031;-75
2022/09/22 02:54:05;;;;;;;2.97;1.50;;;8.80;99.90;;;;;;4947226;29;20036;-74
2022/09/22 02:56:31;;;;;;;2.45;1.25;;;8.80;99.90;;;;;;4947996;29;20082;-75
2022/09/22 02:58:57;;;;;;;2.80;1.50;;;8.80;99.90;;;;;;4947534;28;20031;-74
2022/09/22 03:01:23;;;;;;;4.15;1.58;;;8.80;99.90;;;;;;4937149;29;20028;-74
2022/09/22 03:03:48;;;;;;;3.33;1.40;;;8.80;99.90;;;;;;4929868;29;20083;-74
2022/09/22 03:06:14;;;;;;;6.80;2.05;;;8.80;99.90;;;;;;4936048;29;20032;-74
2022/09/22 03:08:40;;;;;;;1.85;1.40;;;8.70;99.90;;;;;;4936611;29;20032;-74
2022/09/22 03:11:06;;;;;;;5.10;2.50;;;8.70;99.90;;;;;;4929638;29;20043;-74
2022/09/22 03:13:31;;;;;;;5.55;2.08;;;8.60;99.90;;;;;;4917212;29;20063;-74
2022/09/22 03:15:57;;;;;;;4.95;1.88;;;8.70;99.90;;;;;;4931015;29;20055;-74
2022/09/22 03:18:23;;;;;;;1.55;1.02;;;8.70;99.90;;;;;;4936166;29;20035;-74
2022/09/22 03:20:48;;;;;;;2.03;1.60;;;8.70;99.90;;;;;;4918755;29;20039;-74
2022/09/22 03:23:14;;;;;;;2.45;1.50;;;8.60;99.90;;;;;;4917003;29;20484;-74
2022/09/22 03:25:40;;;;;;;6.93;1.80;;;8.70;99.90;;;;;;4917424;29;20032;-74
2022/09/22 03:28:07;;;;;;;1.90;1.13;;;8.50;99.90;;;;;;4917333;29;20056;-75
2022/09/22 03:30:34;;;;;;;3.03;2.00;;;8.50;99.90;;;;;;4917119;29;20036;-75
2022/09/22 03:33:00;;;;;;;1.63;1.13;;;8.50;99.90;;;;;;4916712;29;20068;-74
2022/09/22 03:35:25;;;;;;;3.10;1.45;;;8.40;99.90;;;;;;4917329;29;20028;-74
2022/09/22 03:37:51;;;;;;;3.08;1.63;;;8.40;99.90;;;;;;4932901;29;20028;-74
2022/09/22 03:40:17;;;;;;;3.60;1.20;;;8.30;99.90;;;;;;4935595;29;20031;-75
2022/09/22 03:42:43;;;;;;;1.88;1.10;;;8.30;99.90;;;;;;4935923;29;20028;-74
2022/09/22 03:45:11;;;;;;;2.08;1.27;;;8.30;99.90;;;;;;4935823;29;20488;-75
2022/09/22 03:47:37;;;;;;;6.03;1.75;;;8.20;99.90;;;;;;4936048;28;20050;-75
2022/09/22 03:50:03;;;;;;;2.10;1.17;;;8.30;99.90;;;;;;4932636;29;20035;-74
2022/09/22 03:52:28;;;;;;;10.48;1.20;;;8.20;99.90;;;;;;4945702;29;20086;-73
2022/09/22 03:54:54;;;;;;;4.72;1.98;;;8.30;99.90;;;;;;4946179;29;20027;-73
2022/09/22 03:57:20;;;;;;;1.17;0.93;;;8.30;99.90;;;;;;4935539;29;20024;-73
2022/09/22 03:59:46;;;;;;;2.45;1.48;;;8.30;99.90;;;;;;4947641;29;20476;-73
2022/09/22 04:02:11;;;;;;;6.15;1.90;;;8.30;99.90;;;;;;4935279;29;20034;-72
2022/09/22 04:04:37;;;;;;;1.83;1.20;;;8.30;99.90;;;;;;4934042;29;20027;-71
2022/09/22 04:07:03;;;;;;;2.13;1.40;;;8.30;99.90;;;;;;4935696;29;20473;-73
2022/09/22 04:09:28;;;;;;;4.50;1.40;;;8.30;99.90;;;;;;4934997;29;20476;-72
2022/09/22 04:11:54;;;;;;;1.20;0.85;;;8.30;99.90;;;;;;4934361;29;20039;-72
2022/09/22 04:14:20;;;;;;;3.25;2.05;;;8.30;99.90;;;;;;4934589;29;20047;-73
2022/09/22 04:16:45;;;;;;;3.92;1.90;;;8.40;99.90;;;;;;4916406;29;20036;-72
2022/09/22 04:19:12;;;;;;;1.55;1.00;;;8.30;99.90;;;;;;4916209;29;20039;-72
2022/09/22 04:21:38;;;;;;;2.60;1.80;;;8.40;99.90;;;;;;4950152;29;20027;-72
2022/09/22 04:24:09;;;;;;;6.30;2.10;;;8.30;99.90;;;;;;4934541;29;20473;-72
2022/09/22 04:26:34;;;;;;;5.60;1.95;;;8.30;99.90;;;;;;4935059;29;20031;-73
2022/09/22 04:29:00;;;;;;;4.28;1.48;;;8.10;99.90;;;;;;4934765;29;20061;-72
2022/09/22 04:31:26;;;;;;;3.90;1.95;;;8.10;99.90;;;;;;4929417;29;20130;-72
2022/09/22 04:33:52;;;;;;;12.80;2.30;;;8.10;99.90;;;;;;4929027;29;20043;-73
2022/09/22 04:36:17;;;;;;;1.92;1.02;;;8.00;99.90;;;;;;4934606;29;20489;-73
2022/09/22 04:38:43;;;;;;;2.47;1.80;;;8.00;99.90;;;;;;4934875;29;20054;-72
2022/09/22 04:41:09;;;;;;;2.40;1.25;;;8.00;99.90;;;;;;4928878;29;20069;-73
2022/09/22 04:43:34;;;;;;;3.38;1.75;;;8.00;99.90;;;;;;4928667;29;20111;-73
2022/09/22 04:46:00;;;;;;;2.70;1.23;;;7.90;99.90;;;;;;4933101;29;20036;-73
2022/09/22 04:48:26;;;;;;;1.48;1.23;;;7.90;99.90;;;;;;4948407;28;20039;-73
2022/09/22 04:50:52;;;;;;;4.63;2.38;;;7.90;99.90;;;;;;4943084;29;20046;-73
2022/09/22 04:53:17;;;;;;;2.03;1.25;;;7.90;99.90;;;;;;4922419;28;20595;-72
2022/09/22 04:55:43;;;;;;;5.25;2.50;;;7.80;99.90;;;;;;4927792;29;20039;-74
2022/09/22 04:58:09;;;;;;;2.45;1.75;;;7.80;99.90;;;;;;4915223;29;20035;-74
2022/09/22 05:00:35;;;;;;;1.67;1.30;;;7.80;99.90;;;;;;4915076;29;20032;-72
2022/09/22 05:03:09;;;;;;;2.15;1.15;;;7.90;99.90;;;;;;4914703;29;20551;-72
2022/09/22 05:05:35;;;;;;;2.22;1.35;;;7.80;99.90;;;;;;4913869;29;20500;-71
2022/09/22 05:08:01;;;;;;;2.30;1.33;;;7.80;99.90;;;;;;4915065;29;20071;-71
2022/09/22 05:10:31;;;;;;;2.83;1.88;;;7.80;99.90;;;;;;4918498;29;20058;-71
2022/09/22 05:12:57;;;;;;;1.75;1.20;;;7.70;99.90;;;;;;4947828;29;20035;-71
2022/09/22 05:15:24;;;;;;;1.77;1.27;;;7.70;99.90;;;;;;4925089;29;20036;-71
2022/09/22 05:17:52;;;;;;;4.68;1.73;;;7.60;99.90;;;;;;4928936;29;20070;-71
2022/09/22 05:20:20;;;;;;;3.35;1.35;;;7.60;99.90;;;;;;4931818;29;20035;-71
2022/09/22 05:22:46;;;;;;;3.22;1.85;;;7.50;99.90;;;;;;4947923;28;20067;-71
2022/09/22 05:25:16;;;;;;;3.40;1.50;;;7.50;99.90;;;;;;4932114;29;20063;-71
2022/09/22 05:27:47;;;;;;;3.10;1.45;;;7.60;99.90;;;;;;4933618;29;20023;-71
2022/09/22 05:30:13;;;;;;;1.92;1.00;;;7.60;99.90;;;;;;4931833;29;20027;-71
2022/09/22 05:32:42;;;;;;;1.98;1.48;;;7.60;99.90;;;;;;4932822;29;20130;-71
2022/09/22 05:35:10;;;;;;;4.05;1.92;;;7.70;99.90;;;;;;4933421;29;20056;-72
2022/09/22 05:37:36;;;;;;;1.65;1.20;;;7.70;99.90;;;;;;4933147;29;20032;-71
2022/09/22 05:40:04;;;;;;;1.40;0.85;;;7.70;99.90;;;;;;4933118;29;20036;-71
2022/09/22 05:42:29;;;;;;;1.92;1.38;;;7.70;99.90;;;;;;4947232;29;20036;-71
2022/09/22 05:44:55;;;;;;;4.40;1.88;;;7.70;99.90;;;;;;4933471;29;20086;-71
2022/09/22 05:47:20;;;;;;;8.13;1.75;;;7.70;99.90;;;;;;4944445;29;20043;-72
2022/09/22 05:49:46;;;;;;;2.40;1.38;;;7.70;99.90;;;;;;4952162;29;20027;-71
2022/09/22 05:52:12;;;;;;;2.95;1.95;;;7.70;99.90;;;;;;4951741;28;20065;-71
2022/09/22 05:54:37;;;;;;;4.88;2.20;;;7.70;99.90;;;;;;4937339;29;20177;-72
2022/09/22 05:57:03;;;;;;;5.32;2.05;;;7.60;99.90;;;;;;4933214;29;20036;-71
2022/09/22 05:59:29;;;;;;;1.33;1.10;;;7.70;99.90;;;;;;4931893;29;20050;-72
2022/09/22 06:01:54;;;;;;;2.75;1.65;;;7.70;99.90;;;;;;4926747;29;20087;-72
2022/09/22 06:04:20;;;;;;;7.75;1.92;;;7.80;99.90;;;;;;4932984;29;20041;-72
2022/09/22 06:06:46;;;;;;;2.72;1.70;;;7.80;99.90;;;;;;4932807;29;20078;-72
2022/09/22 06:09:12;;;;;;;4.55;2.00;;;7.80;99.90;;;;;;4932696;29;20135;-72
2022/09/22 06:11:37;;;;;;;7.20;2.63;;;7.80;99.90;;;;;;4932856;29;20479;-72
2022/09/22 06:14:03;;;;;;;2.53;1.58;;;7.90;99.90;;;;;;4932802;29;20121;-72
2022/09/22 06:16:30;;;;;;;1.38;1.25;;;7.90;99.90;;;;;;4927461;29;20028;-72
2022/09/22 06:18:56;;;;;;;2.95;1.88;;;7.90;99.90;;;;;;4930291;29;20568;-72
2022/09/22 06:21:22;;;;;;;2.17;1.67;;;7.90;99.90;;;;;;4930320;29;20035;-72
2022/09/22 06:23:47;;;;;;;4.13;1.75;;;7.90;99.90;;;;;;4929925;29;20031;-72
2022/09/22 06:26:13;;;;;;;2.95;1.50;;;8.00;99.90;;;;;;4931705;29;20087;-72
2022/09/22 06:28:39;;;;;;;3.90;2.20;;;8.00;99.90;;;;;;4920632;29;20066;-72
2022/09/22 06:31:05;;;;;;;4.00;1.58;;;8.00;99.90;;;;;;4931782;29;20024;-72
2022/09/22 06:33:31;;;;;;;5.63;2.38;;;8.10;99.90;;;;;;4927739;29;20032;-72
2022/09/22 06:35:57;;;;;;;3.50;1.92;;;8.10;99.90;;;;;;4934774;29;20036;-72
2022/09/22 06:38:23;;;;;;;3.60;1.95;;;8.20;99.90;;;;;;4935082;29;20036;-72
2022/09/22 06:40:50;;;;;;;6.47;2.15;;;8.20;99.90;;;;;;4935266;28;20043;-72
2022/09/22 06:43:21;;;;;;;4.25;1.75;;;8.30;99.90;;;;;;4935464;29;20031;-72
2022/09/22 06:45:51;;;;;;;3.45;1.77;;;8.30;99.90;;;;;;4949832;28;20783;-72
2022/09/22 06:48:20;;;;;;;3.15;1.77;;;8.30;99.90;;;;;;4968631;28;20035;-72
2022/09/22 06:50:52;;;;;;;2.20;1.35;;;8.40;99.90;;;;;;4953773;28;20023;-72
2022/09/22 06:53:19;;;;;;;3.67;1.65;;;8.50;99.90;;;;;;4968438;28;20830;-72
2022/09/22 06:55:45;;;;;;;5.80;1.73;;;8.50;99.90;;;;;;4946170;28;20066;-72
2022/09/22 06:58:14;;;;;;;3.00;1.70;;;8.50;99.90;;;;;;4968669;28;20035;-72
2022/09/22 07:00:42;;;;;;;3.83;1.95;;;8.60;99.90;;;;;;4945086;28;20086;-72
2022/09/22 07:03:19;;;;;;;3.63;1.98;;;8.70;99.90;;;;;;4945745;28;20035;-70
2022/09/22 07:06:00;;;;;;;2.78;1.33;;;8.60;99.90;;;;;;4945814;28;20400;-71
2022/09/22 07:08:29;;;;;;;2.50;1.63;;;8.70;99.90;;;;;;4959586;28;20047;-71
2022/09/22 07:11:06;;;;;;;3.70;1.50;;;8.80;99.90;;;;;;4947067;28;20046;-70
2022/09/22 07:13:32;;;;;;;3.22;1.88;;;8.90;99.90;;;;;;4969112;28;20115;-71
2022/09/22 07:16:06;;;;;;;8.68;1.77;;;9.00;99.90;;;;;;4941169;28;20102;-71
2022/09/22 07:18:34;;;;;;;5.10;2.00;;;9.00;99.90;;;;;;4937532;28;20038;-71
2022/09/22 07:21:06;;;;;;;3.92;2.03;;;9.00;99.90;;;;;;4936859;29;20038;-72
2022/09/22 07:23:35;;;;;;;4.93;2.92;;;9.10;99.90;;;;;;4936018;28;20086;-71
2022/09/22 07:26:11;;;;;;;7.93;2.08;;;9.20;99.90;;;;;;4957904;28;20038;-71
2022/09/22 07:28:39;;;;;;;2.13;1.30;;;9.30;99.90;;;;;;4936043;29;20070;-71
2022/09/22 07:31:11;;;;;;;11.15;1.73;;;9.40;99.90;;;;;;4942928;28;20035;-71
2022/09/22 07:33:41;;;;;;;4.90;1.80;;;9.40;99.90;;;;;;4967639;28;20058;-71
2022/09/22 07:36:14;;;;;;;2.95;1.77;;;9.50;99.90;;;;;;4961846;28;20035;-71
2022/09/22 07:38:42;;;;;;;2.88;1.17;;;9.60;99.90;;;;;;4971829;23;20495;-71
2022/09/22 07:41:11;;;;;;;4.03;1.38;;;9.70;99.90;;;;;;4986734;28;20382;-69
2022/09/22 07:43:38;;;;;;;3.17;1.67;;;9.80;99.90;;;;;;4991980;28;20407;-69
2022/09/22 07:46:04;;;;;;;12.57;1.60;;;9.90;99.90;;;;;;4986951;28;20034;-71
2022/09/22 07:48:37;;;;;;;2.72;1.50;;;10.00;99.90;;;;;;4991424;28;20034;-71
2022/09/22 07:51:05;;;;;;;7.22;2.13;;;10.00;99.90;;;;;;5005361;28;20026;-68
2022/09/22 07:53:31;;;;;;;3.92;1.48;;;10.20;99.90;;;;;;4979964;28;20105;-69
2022/09/22 07:56:09;;;;;;;5.28;2.33;;;10.30;99.90;;;;;;4986774;28;20034;-69
2022/09/22 07:58:34;;;;;;;4.10;1.58;;;10.40;99.90;;;;;;4991871;28;20089;-69
2022/09/22 08:01:09;;;;;;;2.33;1.80;;;10.40;99.90;;;;;;4988141;28;20084;-69
2022/09/22 08:03:36;;;;;;;3.97;2.15;;;10.60;99.90;;;;;;5001491;28;20093;-70
2022/09/22 08:06:08;;;;;;;3.65;1.50;;;10.80;99.90;;;;;;4988960;28;20023;-69
2022/09/22 08:08:37;;;;;;;2.42;1.42;;;10.80;99.90;;;;;;4991867;28;20041;-69
2022/09/22 08:11:12;;;;;;;3.08;1.88;;;11.00;99.90;;;;;;5003432;28;20113;-69
2022/09/22 08:13:39;;;;;;;7.70;3.20;;;11.10;99.90;;;;;;4991869;28;20034;-69
2022/09/22 08:16:05;;;;;;;1.40;1.10;;;11.20;99.90;;;;;;5007073;28;20042;-69
2022/09/22 08:18:34;;;;;;;3.65;1.40;;;11.20;99.90;;;;;;5005546;28;20033;-69
2022/09/22 08:21:00;;;;;;;4.10;1.45;;;11.30;99.90;;;;;;4991440;28;20447;-69
2022/09/22 08:23:28;;;;;;;4.35;1.50;;;11.40;99.90;;;;;;5006141;28;20446;-70
2022/09/22 08:25:54;;;;;;;4.65;1.98;;;11.50;99.90;;;;;;4991660;28;20065;-69
2022/09/22 08:28:20;;;;;;;5.53;1.50;;;11.70;99.90;;;;;;4991050;28;20027;-70
2022/09/22 08:30:46;;;;;;;3.45;1.83;;;11.80;99.90;;;;;;4991114;28;20096;-70
2022/09/22 08:33:12;;;;;;;3.67;1.88;;;12.00;99.90;;;;;;4974006;28;20061;-70
2022/09/22 08:35:49;;;;;;;1.98;1.02;;;12.20;99.90;;;;;;4991509;28;20162;-69
2022/09/22 08:38:16;;;;;;;3.10;1.73;;;12.40;99.90;;;;;;4984391;28;20065;-70
2022/09/22 08:40:48;;;;;;;2.03;1.05;;;12.40;99.90;;;;;;4988326;28;20027;-69
2022/09/22 08:43:14;;;;;;;11.50;1.05;;;12.60;99.90;;;;;;4980508;28;20042;-69
2022/09/22 08:45:43;;;;;;;5.75;1.35;;;12.80;99.90;;;;;;4991723;28;20398;-69
2022/09/22 08:54:14;;;;;;;4.68;1.20;;;13.20;99.90;;;;;;4991066;28;20062;-70
2022/09/22 08:56:53;;;;;;;2.45;1.60;;;13.20;99.90;;;;;;4986360;28;20030;-70
2022/09/22 08:59:23;;;;;;;2.70;1.25;;;13.40;99.90;;;;;;4989800;28;20386;-69
2022/09/22 09:02:24;;;;;;;1.95;1.20;;;13.60;99.90;;;;;;5002756;28;20030;-70
2022/09/22 09:05:11;;;;;;;2.42;1.05;;;13.70;99.90;;;;;;4991187;28;20068;-69
2022/09/22 09:08:04;;;;;;;5.15;1.55;;;13.90;99.90;;;;;;4981908;28;20038;-69
2022/09/22 09:10:34;;;;;;;2.08;1.00;;;14.10;99.90;;;;;;4987322;28;20033;-69
2022/09/22 09:13:15;;;;;;;1.77;1.20;;;14.20;99.90;;;;;;5005427;28;20034;-69
2022/09/22 09:15:56;;;;;;;4.15;1.10;;;14.40;99.90;;;;;;5001449;28;20030;-69
2022/09/22 09:18:32;;;;;;;3.20;1.33;;;14.40;99.90;;;;;;4982219;28;20041;-69
2022/09/22 09:21:01;;;;;;;2.78;0.98;;;14.50;99.90;;;;;;5003213;28;20101;-69
2022/09/22 09:23:40;;;;;;;3.50;1.38;;;14.60;99.90;;;;;;4990446;28;20615;-70
2022/09/22 09:26:06;;;;;;;4.35;1.42;;;14.70;99.90;;;;;;4990312;28;20126;-70
2022/09/22 09:28:43;;;;;;;4.32;1.40;;;14.90;99.90;;;;;;4990903;28;20105;-70
2022/09/22 09:31:21;;;;;;;2.00;1.05;;;15.10;99.90;;;;;;5000732;28;20038;-70
2022/09/22 09:33:57;;;;;;;2.58;1.58;;;15.20;99.90;;;;;;4972033;28;20040;-70
2022/09/22 09:36:40;;;;;;;1.90;1.23;;;15.30;99.90;;;;;;4990999;28;20034;-70
2022/09/22 09:39:28;;;;;;;3.90;1.80;;;15.40;99.90;;;;;;5003351;28;20037;-70
2022/09/22 09:41:55;;;;;;;18.33;2.38;;;15.50;99.90;;;;;;4985224;28;20033;-70
2022/09/22 09:44:37;;;;;;;9.57;1.50;;;15.70;99.90;;;;;;4992442;28;20121;-70
2022/09/22 09:47:46;;;;;;;9.77;2.53;;;15.80;99.90;;;;;;4989956;28;20054;-70
2022/09/22 09:50:12;;;;;;;3.33;1.17;;;16.00;99.90;;;;;;4989480;28;20117;-70
2022/09/22 09:52:38;;;;;;;3.67;1.30;;;16.00;99.90;;;;;;5004810;28;20546;-70
2022/09/22 09:55:24;;;;;;;5.00;1.15;;;16.10;99.90;;;;;;4989141;28;20038;-70
2022/09/22 10:00:29;;;;;;;2.05;1.00;;;16.30;99.90;;;;;;4993821;28;20035;-70
2022/09/22 10:00:59;;;;;;;3.80;1.23;;;16.50;99.90;;;;;;4983330;28;20497;-70
2022/09/22 10:03:41;;;;;;;2.33;1.00;;;16.70;99.90;;;;;;4974541;28;20491;-70
2022/09/22 10:06:09;;;;;;;3.05;1.50;;;16.90;99.90;;;;;;4989258;28;20491;-70
2022/09/22 10:08:50;;;;;;;10.75;1.38;;;17.00;99.90;;;;;;5003080;28;20030;-70
2022/09/22 10:11:27;;;;;;;5.45;1.20;;;17.00;99.90;;;;;;4998560;28;20038;-71
2022/09/22 10:13:56;;;;;;;4.45;1.10;;;17.10;98.90;;;;;;4961624;28;20045;-70
2022/09/22 10:16:25;;;;;;;4.13;1.50;;;17.30;99.50;;;;;;4988709;28;20037;-70
2022/09/22 10:19:31;;;;;;;4.03;1.20;;;17.50;99.20;;;;;;4989161;28;20064;-70
2022/09/22 10:22:23;;;;;;;1.58;0.93;;;17.70;99.00;;;;;;4984582;28;20138;-71
2022/09/22 10:24:58;;;;;;;1.58;0.85;;;17.70;99.90;;;;;;4989445;28;20073;-69
2022/09/22 10:27:27;;;;;;;2.90;1.40;;;17.90;98.00;;;;;;5004194;28;20034;-69
2022/09/22 10:30:20;;;;;;;3.42;1.25;;;17.90;98.00;;;;;;4988988;28;20050;-70
2022/09/22 10:33:21;;;;;;;2.40;1.10;;;17.40;97.20;;;;;;4988670;28;20108;-67
2022/09/22 10:36:08;;;;;;;2.63;1.13;;;17.80;99.10;;;;;;4988694;28;20030;-67
2022/09/22 10:38:38;;;;;;;1.33;0.90;;;18.30;97.60;;;;;;4989822;28;20509;-68
2022/09/22 10:41:18;;;;;;;2.22;1.50;;;18.10;96.50;;;;;;5003904;28;20045;-66
2022/09/22 10:43:52;;;;;;;2.08;0.95;;;18.30;96.80;;;;;;4992340;28;20800;-68
2022/09/22 10:46:41;;;;;;;1.50;1.10;;;18.30;96.80;;;;;;4981592;28;20042;-66
2022/09/22 10:49:27;;;;;;;5.22;2.05;;;18.60;97.00;;;;;;4989227;28;20125;-66
2022/09/22 10:52:28;;;;;;;1.92;0.90;;;18.60;95.00;;;;;;5004507;28;20057;-67
2022/09/22 10:55:18;;;;;;;1.98;0.85;;;18.10;94.60;;;;;;5001971;28;20100;-66
2022/09/22 10:58:16;;;;;;;3.55;1.20;;;18.50;95.40;;;;;;4989884;28;20498;-67
2022/09/22 11:00:42;;;;;;;1.65;0.85;;;18.90;95.90;;;;;;5001442;28;20031;-67
2022/09/22 11:03:49;;;;;;;2.10;0.75;;;19.30;94.30;;;;;;5003869;28;20508;-67
2022/09/22 11:12:59;;;;;;;0.93;0.60;;;19.20;93.30;;;;;;4979681;28;20058;-67
2022/09/22 11:15:54;;;;;;;3.35;0.90;;;19.00;94.40;;;;;;4988027;28;20034;-67
2022/09/22 11:18:51;;;;;;;0.88;0.50;;;19.00;94.10;;;;;;4987952;28;20030;-68
2022/09/22 11:21:43;;;;;;;0.77;0.47;;;19.00;93.20;;;;;;4990655;28;20459;-67
2022/09/22 11:24:25;;;;;;;1.95;0.57;;;19.20;92.60;;;;;;4992439;28;20505;-67
2022/09/22 11:26:56;;;;;;;0.77;0.40;;;19.40;93.70;;;;;;4989151;28;20498;-68
2022/09/22 11:29:44;;;;;;;3.05;1.00;;;19.40;92.20;;;;;;5007093;28;20499;-68
2022/09/22 11:32:41;;;;;;;1.70;0.80;;;19.40;92.20;;;;;;4984661;28;20042;-68
2022/09/22 11:35:45;;;;;;;2.20;0.77;;;19.80;92.20;;;;;;4966469;28;20084;-67
2022/09/22 11:38:46;;;;;;;0.60;0.32;;;20.10;92.30;;;;;;4987368;28;20112;-68
2022/09/22 11:41:53;;;;;;;0.52;0.47;;;20.80;92.30;;;;;;4992523;28;20399;-68
2022/09/22 11:45:09;;;;;;;2.95;0.40;;;20.80;92.10;;;;;;4961738;28;20038;-68
2022/09/22 11:48:19;;;;;;;1.95;0.65;;;21.10;90.90;;;;;;4976197;28;20494;-68
2022/09/22 11:50:57;;;;;;;3.17;0.73;;;21.30;90.70;;;;;;4999838;28;20108;-68
2022/09/22 11:53:42;;;;;;;1.25;0.60;;;20.40;91.00;;;;;;4990073;28;20081;-67
2022/09/22 11:56:30;;;;;;;0.60;0.32;;;20.60;91.10;;;;;;5003418;28;20117;-68
2022/09/22 11:59:03;;;;;;;1.58;0.30;;;20.10;91.90;;;;;;4991429;28;20035;-68
2022/09/22 12:01:36;;;;;;;2.15;0.82;;;19.10;90.90;;;;;;5004344;28;20364;-68
2022/09/22 12:04:19;;;;;;;3.05;0.90;;;19.00;92.20;;;;;;4989849;28;20395;-67
2022/09/22 12:06:50;;;;;;;3.40;1.27;;;19.20;92.00;;;;;;4986380;28;20125;-68
2022/09/22 12:09:49;;;;;;;0.52;0.50;;;19.60;92.00;;;;;;4997531;28;20058;-67
2022/09/22 12:12:19;;;;;;;1.45;0.60;;;19.90;91.00;;;;;;4987062;28;20044;-68
2022/09/22 12:15:02;;;;;;;0.60;0.50;;;19.50;91.10;;;;;;5006100;28;20106;-68
2022/09/22 12:18:00;;;;;;;0.98;0.70;;;19.60;90.50;;;;;;5002785;28;20124;-68
2022/09/22 12:20:38;;;;;;;1.70;0.73;;;19.50;90.70;;;;;;5004956;28;20161;-67
2022/09/22 12:23:32;;;;;;;0.88;0.57;;;19.80;90.80;;;;;;4989681;28;20114;-67
2022/09/22 12:26:04;;;;;;;1.45;0.80;;;20.10;89.80;;;;;;5003115;28;20034;-68
2022/09/22 12:28:36;;;;;;;1.42;0.47;;;20.70;90.40;;;;;;5005504;28;20022;-68
2022/09/22 12:31:05;;;;;;;3.33;1.02;;;20.50;89.00;;;;;;5005098;28;20121;-67
2022/09/22 12:33:36;;;;;;;2.88;0.75;;;20.70;90.30;;;;;;5005691;28;20082;-67
2022/09/22 12:36:04;;;;;;;2.78;0.40;;;21.00;88.70;;;;;;5006472;28;20076;-67
2022/09/22 12:38:31;;;;;;;2.30;0.50;;;21.40;87.70;;;;;;5004074;28;20129;-67
2022/09/22 12:41:01;;;;;;;7.88;0.82;;;21.30;88.00;;;;;;5005413;28;20026;-68
2022/09/22 12:43:28;;;;;;;2.17;0.82;;;22.00;88.70;;;;;;5001237;28;20030;-67
2022/09/22 12:45:56;;;;;;;0.75;0.40;;;22.40;87.00;;;;;;5005754;28;20038;-68
2022/09/22 12:48:33;;;;;;;0.93;0.32;;;22.70;82.50;;;;;;4970142;28;20363;-68
2022/09/22 12:51:23;;;;;;;3.13;1.33;;;22.40;81.60;;;;;;4996615;28;20037;-68
2022/09/22 12:53:49;;;;;;;17.15;6.70;;;22.50;79.40;;;;;;4958176;28;20490;-67
2022/09/22 12:56:59;;;;;;;5.05;1.90;;;22.40;84.80;;;;;;4990856;28;20045;-67
2022/09/22 12:59:34;;;;;;;1.65;0.52;;;21.80;81.30;;;;;;4960072;28;20050;-67
2022/09/22 13:02:14;;;;;;;3.10;1.10;;;22.00;79.80;;;;;;4987739;28;20066;-67
2022/09/22 13:04:52;;;;;;;2.23;0.60;;;21.90;78.30;;;;;;4990826;28;20023;-67
2022/09/22 13:07:43;;;;;;;0.55;0.32;;;22.20;77.90;;;;;;4984677;28;20057;-67
2022/09/22 13:10:23;;;;;;;1.45;0.50;;;22.10;78.20;;;;;;4989114;28;20511;-67
2022/09/22 13:13:08;;;;;;;2.60;0.32;;;22.20;80.30;;;;;;4984022;28;20069;-67
2022/09/22 13:15:46;;;;;;;0.73;0.32;;;22.00;78.30;;;;;;4989239;28;20386;-67
2022/09/22 13:18:42;;;;;;;4.43;0.82;;;21.50;78.10;;;;;;4984596;28;20034;-67
2022/09/22 13:21:13;;;;;;;0.85;0.20;;;22.10;78.00;;;;;;4985289;28;20497;-67
2022/09/22 13:23:48;;;;;;;0.88;0.32;;;22.90;77.50;;;;;;4991085;28;20038;-67
2022/09/22 13:26:15;;;;;;;0.75;0.38;;;21.90;76.60;;;;;;4985992;28;20072;-68
2022/09/22 13:28:42;;;;;;;2.28;0.55;;;22.20;79.20;;;;;;4975873;28;20040;-68
2022/09/22 13:31:14;;;;;;;3.83;0.55;;;23.10;77.40;;;;;;5002580;28;20076;-68
2022/09/22 13:33:41;;;;;;;4.97;1.33;;;23.30;78.40;;;;;;4988407;28;20117;-67
2022/09/22 13:36:16;;;;;;;2.03;1.00;;;22.50;77.30;;;;;;5001102;28;20026;-68
2022/09/22 13:38:53;;;;;;;3.00;0.50;;;23.20;75.30;;;;;;5004490;23;20070;-70
2022/09/22 13:41:27;;;;;;;5.03;1.15;;;23.30;76.60;;;;;;4979432;28;20035;-71